createdAt,value
2018-12-22T00:00:54.089Z,97663.20
2018-12-22T00:03:22.514Z,97659.95
2018-12-22T00:05:50.957Z,97663.77
2018-12-22T00:08:19.423Z,97663.14
2018-12-22T00:10:47.900Z,97663.86
2018-12-22T00:13:16.323Z,97657.45
2018-12-22T00:15:44.832Z,97656.56
2018-12-22T00:18:13.281Z,97657.55
2018-12-22T00:20:41.768Z,97648.56
2018-12-22T00:23:10.217Z,97653.07
2018-12-22T00:25:38.697Z,97657.33
2018-12-22T00:28:07.141Z,97658.83
2018-12-22T00:30:35.564Z,97660.72
2018-12-22T00:33:04.043Z,97656.73
2018-12-22T00:35:32.482Z,97661.98
2018-12-22T00:38:00.970Z,97666.57
2018-12-22T00:40:29.441Z,97670.06
2018-12-22T00:42:57.939Z,97670.63
2018-12-22T00:45:26.370Z,97675.08
2018-12-22T00:47:54.819Z,97671.57
2018-12-22T00:50:23.251Z,97662.83
2018-12-22T00:52:51.707Z,97661.95
2018-12-22T00:55:20.158Z,97663.33
2018-12-22T00:57:48.611Z,97673.84
2018-12-22T01:00:17.076Z,97669.51
2018-12-22T01:02:45.552Z,97667.98
2018-12-22T01:05:13.994Z,97671.97
2018-12-22T01:07:42.461Z,97674.56
2018-12-22T01:10:11.085Z,97672.42
2018-12-22T01:12:39.553Z,97679.95
2018-12-22T01:15:08.300Z,97678.11
2018-12-22T01:17:38.380Z,97684.98
2018-12-22T01:20:08.092Z,97677.80
2018-12-22T01:22:36.580Z,97682.97
2018-12-22T01:25:05.687Z,97684.45
2018-12-22T01:27:34.182Z,97680.23
2018-12-22T01:30:02.617Z,97693.16
2018-12-22T01:32:31.088Z,97693.69
2018-12-22T01:34:59.554Z,97693.52
2018-12-22T01:37:28.070Z,97695.45
2018-12-22T01:39:56.522Z,97691.91
2018-12-22T01:42:24.999Z,97692.05
2018-12-22T01:44:53.463Z,97696.27
2018-12-22T01:47:21.956Z,97700.08
2018-12-22T01:49:51.243Z,97704.20
2018-12-22T01:52:19.727Z,97699.65
2018-12-22T01:54:48.176Z,97694.61
2018-12-22T01:57:16.649Z,97694.76
2018-12-22T01:59:45.091Z,97686.73
2018-12-22T02:02:13.555Z,97682.38
2018-12-22T02:04:46.635Z,97682.73
2018-12-22T02:07:15.119Z,97687.45
2018-12-22T02:09:43.556Z,97680.44
2018-12-22T02:12:12.028Z,97675.25
2018-12-22T02:14:40.620Z,97675.99
2018-12-22T02:17:09.104Z,97688.47
2018-12-22T02:19:37.515Z,97675.63
2018-12-22T02:22:06.666Z,97687.23
2018-12-22T02:24:35.121Z,97686.91
2018-12-22T02:27:03.611Z,97683.28
2018-12-22T02:29:32.035Z,97682.45
2018-12-22T02:32:00.519Z,97687.03
2018-12-22T02:34:28.983Z,97692.13
2018-12-22T02:36:57.432Z,97681.64
2018-12-22T02:39:25.852Z,97680.31
2018-12-22T02:41:54.369Z,97679.34
2018-12-22T02:44:22.808Z,97684.08
2018-12-22T02:46:51.298Z,97680.72
2018-12-22T02:49:19.756Z,97683.23
2018-12-22T02:51:48.464Z,97688.70
2018-12-22T02:54:16.919Z,97688.48
2018-12-22T02:56:45.407Z,97678.14
2018-12-22T02:59:13.843Z,97683.74
2018-12-22T03:01:42.312Z,97686.72
2018-12-22T03:04:10.743Z,97678.42
2018-12-22T03:06:39.245Z,97680.58
2018-12-22T03:09:07.911Z,97675.89
2018-12-22T03:11:36.376Z,97668.27
2018-12-22T03:14:04.942Z,97665.57
2018-12-22T03:16:33.413Z,97670.39
2018-12-22T03:19:01.857Z,97666.75
2018-12-22T03:21:30.306Z,97662.02
2018-12-22T03:23:58.732Z,97655.20
2018-12-22T03:26:27.273Z,97654.34
2018-12-22T03:28:55.716Z,97643.11
2018-12-22T03:31:24.181Z,97641.17
2018-12-22T03:33:52.713Z,97648.70
2018-12-22T03:36:21.129Z,97639.45
2018-12-22T03:38:49.595Z,97642.62
2018-12-22T03:41:18.031Z,97635.10
2018-12-22T03:43:46.484Z,97629.43
2018-12-22T03:46:14.910Z,97628.72
2018-12-22T03:48:43.359Z,97618.62
2018-12-22T03:51:11.784Z,97632.97
2018-12-22T03:53:40.230Z,97626.43
2018-12-22T03:56:08.651Z,97622.48
2018-12-22T03:58:37.109Z,97624.20
2018-12-22T04:01:05.665Z,97619.42
2018-12-22T04:03:34.115Z,97616.59
2018-12-22T04:06:02.531Z,97612.11
2018-12-22T04:08:30.982Z,97608.28
2018-12-22T04:10:59.413Z,97604.52
2018-12-22T04:13:28.000Z,97598.89
2018-12-22T04:15:56.439Z,97593.80
2018-12-22T04:18:24.891Z,97597.00
2018-12-22T04:20:53.308Z,97579.25
2018-12-22T04:23:21.749Z,97591.22
2018-12-22T04:25:50.159Z,97592.23
2018-12-22T04:28:18.635Z,97581.91
2018-12-22T04:30:47.068Z,97575.49
2018-12-22T04:33:15.535Z,97589.69
2018-12-22T04:35:43.959Z,97598.48
2018-12-22T04:38:12.408Z,97590.20
2018-12-22T04:40:40.893Z,97585.95
2018-12-22T04:43:09.358Z,97600.94
2018-12-22T04:45:37.776Z,97613.64
2018-12-22T04:48:06.232Z,97604.65
2018-12-22T04:50:34.671Z,97607.31
2018-12-22T04:53:03.226Z,97597.17
2018-12-22T04:55:31.664Z,97593.34
2018-12-22T04:58:00.195Z,97587.74
2018-12-22T05:00:28.647Z,97579.30
2018-12-22T05:02:57.135Z,97581.69
2018-12-22T05:05:25.562Z,97582.42
2018-12-22T05:07:54.107Z,97592.75
2018-12-22T05:10:22.568Z,97616.41
2018-12-22T05:12:51.023Z,97620.72
2018-12-22T05:15:19.493Z,97632.27
2018-12-22T05:17:47.951Z,97625.98
2018-12-22T05:20:16.371Z,97620.90
2018-12-22T05:22:44.824Z,97620.83
2018-12-22T05:25:13.257Z,97617.36
2018-12-22T05:27:41.779Z,97616.98
2018-12-22T05:30:10.264Z,97612.09
2018-12-22T05:32:38.723Z,97619.42
2018-12-22T05:35:07.259Z,97618.60
2018-12-22T05:37:35.731Z,97631.89
2018-12-22T05:40:04.584Z,97634.33
2018-12-22T05:42:33.032Z,97628.96
2018-12-22T05:45:01.463Z,97629.23
2018-12-22T05:47:29.885Z,97633.45
2018-12-22T05:49:59.163Z,97643.08
2018-12-22T05:52:27.596Z,97641.94
2018-12-22T05:54:58.088Z,97632.81
2018-12-22T05:57:26.516Z,97624.89
2018-12-22T06:00:00.491Z,97628.09
2018-12-22T06:05:21.108Z,97605.59
2018-12-22T06:07:49.552Z,97602.04
2018-12-22T06:10:17.951Z,97602.22
2018-12-22T06:12:46.388Z,97603.97
2018-12-22T06:15:14.843Z,97605.89
2018-12-22T06:17:43.254Z,97591.95
2018-12-22T06:20:11.731Z,97605.07
2018-12-22T06:22:41.190Z,97589.44
2018-12-22T06:25:09.632Z,97605.53
2018-12-22T06:27:38.048Z,97620.00
2018-12-22T06:30:09.393Z,97649.89
2018-12-22T06:32:37.078Z,97665.05
2018-12-22T06:35:05.666Z,97655.97
2018-12-22T06:37:34.082Z,97660.98
2018-12-22T06:40:02.528Z,97672.06
2018-12-22T06:42:30.943Z,97676.78
2018-12-22T06:47:53.778Z,97663.06
2018-12-22T06:50:22.629Z,97662.25
2018-12-22T06:52:51.072Z,97665.55
2018-12-22T06:55:19.535Z,97663.06
2018-12-22T06:57:47.958Z,97656.78
2018-12-22T07:00:17.918Z,97655.90
2018-12-22T07:02:46.640Z,97641.05
2018-12-22T07:05:15.128Z,97657.95
2018-12-22T07:07:43.568Z,97653.69
2018-12-22T07:10:12.164Z,97647.83
2018-12-22T07:12:40.610Z,97653.45
2018-12-22T07:15:09.244Z,97648.15
2018-12-22T07:17:37.685Z,97678.69
2018-12-22T07:20:06.182Z,97672.41
2018-12-22T07:22:34.611Z,97674.97
2018-12-22T07:25:03.099Z,97695.42
2018-12-22T07:27:31.539Z,97668.65
2018-12-22T07:30:00.023Z,97677.05
2018-12-22T07:32:28.450Z,97694.69
2018-12-22T07:34:56.936Z,97703.23
2018-12-22T07:37:25.368Z,97694.41
2018-12-22T07:39:53.848Z,97697.66
2018-12-22T07:42:22.292Z,97689.47
2018-12-22T07:44:50.767Z,97704.13
2018-12-22T07:47:19.208Z,97685.98
2018-12-22T07:49:47.860Z,97707.97
2018-12-22T07:52:16.303Z,97710.12
2018-12-22T07:54:44.804Z,97718.46
2018-12-22T07:57:13.264Z,97727.16
2018-12-22T07:59:41.737Z,97723.40
2018-12-22T08:02:10.172Z,97734.25
2018-12-22T08:04:38.713Z,97730.04
2018-12-22T08:07:07.160Z,97725.83
2018-12-22T08:09:35.698Z,97742.50
2018-12-22T08:12:04.292Z,97722.42
2018-12-22T08:14:32.744Z,97730.90
2018-12-22T08:17:01.245Z,97723.24
2018-12-22T08:19:29.723Z,97721.98
2018-12-22T08:22:10.753Z,97731.50
2018-12-22T08:24:39.225Z,97748.32
2018-12-22T08:27:07.656Z,97752.66
2018-12-22T08:29:36.108Z,97761.28
2018-12-22T08:32:04.836Z,97751.20
2018-12-22T08:34:33.291Z,97749.77
2018-12-22T08:37:01.855Z,97742.09
2018-12-22T08:39:30.316Z,97748.77
2018-12-22T08:41:58.754Z,97778.86
2018-12-22T08:44:27.228Z,97768.14
2018-12-22T08:46:55.656Z,97767.77
2018-12-22T08:49:24.141Z,97773.30
2018-12-22T08:51:52.595Z,97796.91
2018-12-22T08:54:21.057Z,97775.83
2018-12-22T08:56:49.505Z,97802.16
2018-12-22T08:59:17.963Z,97784.91
2018-12-22T09:01:46.401Z,97801.13
2018-12-22T09:04:14.863Z,97793.31
2018-12-22T09:06:43.288Z,97805.52
2018-12-22T09:09:11.873Z,97808.27
2018-12-22T09:11:40.320Z,97809.70
2018-12-22T09:14:08.775Z,97828.08
2018-12-22T09:16:37.259Z,97833.98
2018-12-22T09:19:05.707Z,97832.16
2018-12-22T09:21:34.219Z,97840.50
2018-12-22T09:24:02.666Z,97834.44
2018-12-22T09:26:31.148Z,97829.91
2018-12-22T09:28:59.575Z,97848.41
2018-12-22T09:31:28.047Z,97845.14
2018-12-22T09:33:56.480Z,97848.84
2018-12-22T09:36:24.960Z,97839.61
2018-12-22T09:38:53.510Z,97829.08
2018-12-22T09:41:21.982Z,97821.23
2018-12-22T09:43:50.419Z,97822.66
2018-12-22T09:46:18.880Z,97831.73
2018-12-22T09:48:47.352Z,97834.11
2018-12-22T09:51:15.789Z,97837.88
2018-12-22T09:53:44.231Z,97845.06
2018-12-22T09:56:13.316Z,97866.60
2018-12-22T09:58:41.777Z,97829.18
2018-12-22T10:01:10.235Z,97824.41
2018-12-22T10:03:38.672Z,97803.90
2018-12-22T10:06:07.147Z,97822.52
2018-12-22T10:08:35.559Z,97822.99
2018-12-22T10:11:04.147Z,97829.70
2018-12-22T10:13:32.572Z,97823.05
2018-12-22T10:16:01.056Z,97818.20
2018-12-22T10:18:29.472Z,97824.86
2018-12-22T10:20:57.929Z,97829.43
2018-12-22T10:23:26.361Z,97837.05
2018-12-22T10:25:54.820Z,97835.27
2018-12-22T10:28:23.362Z,97844.67
2018-12-22T10:30:51.845Z,97837.48
2018-12-22T10:33:20.265Z,97848.50
2018-12-22T10:35:48.732Z,97853.96
2018-12-22T10:38:17.169Z,97852.27
2018-12-22T10:40:45.632Z,97849.45
2018-12-22T10:43:14.055Z,97838.34
2018-12-22T10:45:42.511Z,97830.64
2018-12-22T10:48:10.944Z,97850.61
2018-12-22T10:50:39.408Z,97848.12
2018-12-22T10:53:07.837Z,97858.36
2018-12-22T10:55:36.407Z,97862.85
2018-12-22T10:58:05.346Z,97851.63
2018-12-22T11:00:33.959Z,97857.33
2018-12-22T11:03:02.438Z,97859.77
2018-12-22T11:05:30.871Z,97838.02
2018-12-22T11:07:59.284Z,97869.70
2018-12-22T11:10:28.503Z,97824.30
2018-12-22T11:12:59.412Z,97866.81
2018-12-22T11:15:27.934Z,97862.22
2018-12-22T11:17:56.524Z,97878.28
2018-12-22T11:20:25.016Z,97873.77
2018-12-22T11:22:53.473Z,97855.42
2018-12-22T11:25:24.224Z,97876.95
2018-12-22T11:27:52.687Z,97879.97
2018-12-22T11:30:27.235Z,97878.11
2018-12-22T11:32:55.736Z,97886.91
2018-12-22T11:35:24.216Z,97869.36
2018-12-22T11:37:52.667Z,97884.97
2018-12-22T11:40:21.183Z,97864.02
2018-12-22T11:42:49.632Z,97884.42
2018-12-22T11:45:18.153Z,97887.14
2018-12-22T11:48:53.946Z,97861.11
2018-12-22T11:51:22.433Z,97892.83
2018-12-22T11:53:50.884Z,97874.27
2018-12-22T11:56:19.464Z,97883.79
2018-12-22T11:58:47.905Z,97888.84
2018-12-22T12:01:16.471Z,97881.22
2018-12-22T12:03:44.930Z,97876.42
2018-12-22T12:06:13.410Z,97871.53
2018-12-22T12:08:41.875Z,97886.83
2018-12-22T12:11:10.606Z,97897.43
2018-12-22T12:13:39.147Z,97897.27
2018-12-22T12:16:47.489Z,97901.21
2018-12-22T12:19:24.504Z,97909.12
2018-12-22T12:21:53.301Z,97906.80
2018-12-22T12:24:21.760Z,97925.02
2018-12-22T12:26:50.724Z,97921.70
2018-12-22T12:29:19.179Z,97926.94
2018-12-22T12:31:52.041Z,97919.46
2018-12-22T12:34:18.191Z,97922.44
2018-12-22T12:36:46.849Z,97911.70
2018-12-22T12:39:16.358Z,97916.66
2018-12-22T12:41:45.419Z,97925.75
2018-12-22T12:44:13.856Z,97927.82
2018-12-22T12:46:47.603Z,97929.83
2018-12-22T12:49:16.656Z,97918.13
2018-12-22T12:51:45.249Z,97945.66
2018-12-22T12:54:13.723Z,97930.86
2018-12-22T12:56:47.820Z,97952.66
2018-12-22T12:59:16.246Z,97937.27
2018-12-22T13:01:44.713Z,97941.41
2018-12-22T13:04:13.164Z,97959.88
2018-12-22T13:06:41.635Z,97947.84
2018-12-22T13:09:10.088Z,97946.13
2018-12-22T13:11:38.659Z,97967.19
2018-12-22T13:14:12.740Z,97976.44
2018-12-22T13:16:41.279Z,97976.91
2018-12-22T13:19:09.776Z,97982.73
2018-12-22T13:21:39.641Z,97980.95
2018-12-22T13:24:08.691Z,97980.38
2018-12-22T13:26:37.248Z,97981.80
2018-12-22T13:29:05.716Z,97987.72
2018-12-22T13:37:19.692Z,97997.62
2018-12-22T13:39:48.195Z,98009.14
2018-12-22T13:42:16.652Z,98005.25
2018-12-22T13:44:45.083Z,98011.91
2018-12-22T13:47:13.551Z,98008.92
2018-12-22T13:49:42.022Z,98012.85
2018-12-22T13:52:10.545Z,98001.77
2018-12-22T13:54:38.988Z,97991.17
2018-12-22T13:57:07.454Z,97984.97
2018-12-22T13:59:35.871Z,98004.55
2018-12-22T14:02:06.265Z,98001.01
2018-12-22T14:04:35.834Z,98004.12
2018-12-22T14:07:05.979Z,97988.75
2018-12-22T14:09:34.514Z,97982.66
2018-12-22T14:12:03.019Z,97988.52
2018-12-22T14:14:34.795Z,98000.58
2018-12-22T14:17:14.817Z,97997.83
2018-12-22T14:19:48.227Z,98011.09
2018-12-22T14:22:17.067Z,98021.39
2018-12-22T14:24:48.679Z,98026.40
2018-12-22T14:27:17.214Z,98027.67
2018-12-22T14:35:37.712Z,98058.38
2018-12-22T14:38:06.211Z,98063.92
2018-12-22T14:40:34.735Z,98069.91
2018-12-22T14:43:03.207Z,98086.27
2018-12-22T14:45:32.282Z,98090.55
2018-12-22T14:48:00.736Z,98102.73
2018-12-22T14:50:29.179Z,98113.83
2018-12-22T14:52:57.644Z,98121.27
2018-12-22T14:58:31.332Z,98133.59
2018-12-22T15:05:46.103Z,98144.00
2018-12-22T15:08:14.555Z,98151.81
2018-12-22T15:10:42.979Z,98145.45
2018-12-22T15:13:11.433Z,98157.36
2018-12-22T15:21:24.902Z,98163.61
2018-12-22T15:23:53.360Z,98167.62
2018-12-22T15:26:21.799Z,98170.93
2018-12-22T15:28:50.259Z,98159.93
2018-12-22T15:31:18.652Z,98181.18
2018-12-22T15:33:47.099Z,98150.75
2018-12-22T15:36:15.546Z,98175.00
2018-12-22T15:38:44.056Z,98155.39
2018-12-22T15:41:12.476Z,98183.80
2018-12-22T15:43:40.934Z,98182.28
2018-12-22T15:46:09.423Z,98198.78
2018-12-22T15:50:02.315Z,98196.66
2018-12-22T15:52:30.766Z,98213.30
2018-12-22T15:54:59.178Z,98227.28
2018-12-22T16:00:20.999Z,98242.09
2018-12-22T16:02:53.527Z,98226.78
2018-12-22T16:05:22.053Z,98224.34
2018-12-22T16:10:43.976Z,98223.81
2018-12-22T16:13:12.727Z,98231.36
2018-12-22T16:15:41.210Z,98225.25
2018-12-22T16:18:09.684Z,98229.62
2018-12-22T16:20:38.131Z,98231.78
2018-12-22T16:23:11.504Z,98233.41
2018-12-22T16:25:40.044Z,98238.89
2018-12-22T16:28:20.694Z,98241.87
2018-12-22T16:30:55.623Z,98242.66
2018-12-22T16:33:24.092Z,98252.27
2018-12-22T16:35:54.721Z,98259.91
2018-12-22T16:38:23.193Z,98256.55
2018-12-22T16:40:51.648Z,98261.36
2018-12-22T16:43:20.773Z,98255.02
2018-12-22T16:45:51.496Z,98279.11
2018-12-22T16:51:57.847Z,98258.20
2018-12-22T16:54:26.313Z,98267.28
2018-12-22T16:56:54.718Z,98274.22
2018-12-22T16:59:23.540Z,98278.11
2018-12-22T17:01:59.059Z,98278.70
2018-12-22T17:04:27.508Z,98271.97
2018-12-22T17:06:55.910Z,98287.07
2018-12-22T17:09:24.372Z,98276.78
2018-12-22T17:11:52.795Z,98293.83
2018-12-22T17:14:21.280Z,98293.70
2018-12-22T17:16:49.734Z,98301.78
2018-12-22T17:19:18.195Z,98310.12
2018-12-22T17:22:09.956Z,98311.45
2018-12-22T17:24:49.335Z,98310.03
2018-12-22T17:27:17.862Z,98316.87
2018-12-22T17:35:31.409Z,98317.88
2018-12-22T17:37:59.984Z,98328.73
2018-12-22T17:40:29.332Z,98325.25
2018-12-22T17:45:51.047Z,98339.04
2018-12-22T17:48:19.823Z,98331.82
2018-12-22T17:50:48.283Z,98329.88
2018-12-22T17:53:16.705Z,98335.61
2018-12-22T17:55:45.168Z,98336.10
2018-12-22T17:58:13.576Z,98344.48
2018-12-22T18:00:42.045Z,98331.84
2018-12-22T18:03:12.783Z,98331.00
2018-12-22T18:05:41.533Z,98337.41
2018-12-22T18:15:06.765Z,98356.77
2018-12-22T18:17:35.198Z,98355.78
2018-12-22T18:20:04.095Z,98354.34
2018-12-22T18:22:32.511Z,98367.50
2018-12-22T18:25:01.027Z,98371.38
2018-12-22T18:27:29.501Z,98380.86
2018-12-22T18:29:58.047Z,98379.39
2018-12-22T18:32:26.612Z,98368.26
2018-12-22T18:34:55.041Z,98374.47
2018-12-22T18:37:23.531Z,98371.31
2018-12-22T18:39:52.075Z,98367.61
2018-12-22T18:42:20.548Z,98370.94
2018-12-22T18:44:49.060Z,98370.72
2018-12-22T18:47:17.635Z,98377.87
2018-12-22T18:49:46.160Z,98370.24
2018-12-22T18:52:14.738Z,98380.95
2018-12-22T18:54:43.171Z,98379.22
2018-12-22T18:57:14.257Z,98384.86
2018-12-22T18:59:43.291Z,98384.75
2018-12-22T19:02:11.772Z,98391.48
2018-12-22T19:04:40.433Z,98388.84
2018-12-22T19:07:08.879Z,98391.48
2018-12-22T19:09:39.249Z,98395.87
2018-12-22T19:12:13.167Z,98393.78
2018-12-22T19:14:41.356Z,98394.28
2018-12-22T19:17:10.017Z,98401.22
2018-12-22T19:19:38.595Z,98396.84
2018-12-22T19:22:07.044Z,98396.61
2018-12-22T19:24:35.475Z,98403.47
2018-12-22T19:27:03.929Z,98400.22
2018-12-22T19:29:32.357Z,98400.62
2018-12-22T19:32:00.816Z,98402.97
2018-12-22T19:34:29.231Z,98410.33
2018-12-22T19:36:57.688Z,98421.56
2018-12-22T19:39:26.115Z,98425.34
2018-12-22T19:41:54.561Z,98423.95
2018-12-22T19:44:22.991Z,98434.26
2018-12-22T19:46:51.441Z,98434.39
2018-12-22T19:49:19.864Z,98440.67
2018-12-22T19:51:48.311Z,98439.45
2018-12-22T19:54:16.747Z,98441.70
2018-12-22T19:56:45.195Z,98444.55
2018-12-22T19:59:13.623Z,98448.11
2018-12-22T20:01:42.075Z,98442.15
2018-12-22T20:04:10.488Z,98448.63
2018-12-22T20:06:39.115Z,98455.42
2018-12-22T20:09:07.543Z,98450.78
2018-12-22T20:11:36.134Z,98445.55
2018-12-22T20:14:04.580Z,98451.97
2018-12-22T20:16:33.048Z,98454.95
2018-12-22T20:19:01.477Z,98451.64
2018-12-22T20:21:29.943Z,98453.63
2018-12-22T20:23:58.392Z,98452.17
2018-12-22T20:26:26.837Z,98459.27
2018-12-22T20:28:55.289Z,98450.28
2018-12-22T20:31:23.719Z,98462.02
2018-12-22T20:33:52.160Z,98475.02
2018-12-22T20:36:20.575Z,98481.55
2018-12-22T20:38:49.033Z,98485.66
2018-12-22T20:41:17.444Z,98482.25
2018-12-22T20:43:45.912Z,98483.51
2018-12-22T20:46:14.341Z,98479.33
2018-12-22T20:48:42.800Z,98478.94
2018-12-22T20:51:11.235Z,98484.14
2018-12-22T20:53:39.698Z,98470.38
2018-12-22T20:56:08.295Z,98479.13
2018-12-22T20:58:36.747Z,98486.83
2018-12-22T21:01:05.179Z,98486.13
2018-12-22T21:03:39.266Z,98481.32
2018-12-22T21:06:15.271Z,98473.69
2018-12-22T21:08:43.816Z,98476.84
2018-12-22T21:11:12.354Z,98479.63
2018-12-22T21:13:41.051Z,98467.31
2018-12-22T21:16:09.521Z,98468.02
2018-12-22T21:18:37.975Z,98471.36
2018-12-22T21:21:06.412Z,98482.73
2018-12-22T21:23:34.904Z,98481.41
2018-12-22T21:26:03.340Z,98472.42
2018-12-22T21:28:31.807Z,98473.75
2018-12-22T21:31:00.236Z,98470.20
2018-12-22T21:33:28.698Z,98468.47
2018-12-22T21:35:57.911Z,98483.87
2018-12-22T21:38:26.393Z,98486.52
2018-12-22T21:40:54.829Z,98488.77
2018-12-22T21:43:23.292Z,98492.26
2018-12-22T21:45:51.712Z,98495.54
2018-12-22T21:48:20.179Z,98504.12
2018-12-22T21:50:48.607Z,98497.36
2018-12-22T21:53:17.072Z,98505.05
2018-12-22T21:55:45.513Z,98513.67
2018-12-22T21:58:13.997Z,98509.84
2018-12-22T22:00:43.376Z,98512.09
2018-12-22T22:03:12.012Z,98514.58
2018-12-22T22:05:40.471Z,98506.14
2018-12-22T22:08:08.935Z,98515.50
2018-12-22T22:10:37.376Z,98517.86
2018-12-22T22:13:05.856Z,98513.27
2018-12-22T22:15:34.319Z,98511.52
2018-12-22T22:18:02.801Z,98514.94
2018-12-22T22:20:31.234Z,98513.17
2018-12-22T22:22:59.687Z,98510.14
2018-12-22T22:25:28.225Z,98514.26
2018-12-22T22:27:56.740Z,98523.22
2018-12-22T22:30:25.188Z,98531.79
2018-12-22T22:32:53.647Z,98522.42
2018-12-22T22:35:22.063Z,98530.69
2018-12-22T22:37:50.524Z,98524.98
2018-12-22T22:40:19.000Z,98526.53
2018-12-22T22:42:47.431Z,98530.71
2018-12-22T22:45:15.903Z,98533.90
2018-12-22T22:47:44.333Z,98514.98
2018-12-22T22:50:12.803Z,98514.13
2018-12-22T22:52:41.239Z,98519.41
2018-12-22T22:55:09.719Z,98511.45
2018-12-22T22:57:38.126Z,98513.45
2018-12-22T23:00:10.638Z,98517.44
2018-12-22T23:02:39.070Z,98505.89
2018-12-22T23:05:07.640Z,98510.09
2018-12-22T23:07:36.075Z,98510.23
2018-12-22T23:10:05.631Z,98511.27
2018-12-22T23:12:34.143Z,98505.13
2018-12-22T23:15:02.620Z,98503.87
2018-12-22T23:17:31.059Z,98505.69
2018-12-22T23:19:59.507Z,98503.23
2018-12-22T23:22:27.935Z,98496.17
2018-12-22T23:24:56.374Z,98510.13
2018-12-22T23:27:24.879Z,98507.11
2018-12-22T23:29:53.361Z,98513.11
2018-12-22T23:32:21.795Z,98512.22
2018-12-22T23:34:50.246Z,98499.69
2018-12-22T23:37:18.659Z,98509.80
2018-12-22T23:39:47.106Z,98503.23
2018-12-22T23:42:15.540Z,98505.19
2018-12-22T23:44:43.997Z,98512.16
2018-12-22T23:47:12.415Z,98510.83
2018-12-22T23:52:32.744Z,98522.03
2018-12-22T23:55:01.182Z,98523.30
2018-12-22T23:57:29.592Z,98534.80
2018-12-22T23:59:58.034Z,98520.78
